Time;durP1;ratioP1;P1;durP2;ratioP2;P2;SDS_P1;SDS_P2;PMS_P1;PMS_P2;Temp;Humidity;BMP_temperature;BMP_pressure;BME280_temperature;BME280_humidity;BME280_pressure;Samples;Min_cycle;Max_cycle;Signal;HPM_P1;HPM_P2
2021/11/28 00:02:19;;;;;;;5.63;3.83;;;0.10;99.90;;;;;;5025581;28;20213;-73
2021/11/28 00:04:47;;;;;;;3.83;3.33;;;0.20;99.90;;;;;;5026880;28;20636;-73
2021/11/28 00:07:25;;;;;;;3.78;3.33;;;0.10;99.90;;;;;;5028453;28;20312;-73
2021/11/28 00:10:02;;;;;;;2.50;2.22;;;0.20;99.90;;;;;;5030703;28;20209;-73
2021/11/28 00:12:40;;;;;;;5.50;3.10;;;0.20;99.90;;;;;;5029519;28;20292;-73
2021/11/28 00:15:09;;;;;;;4.65;2.60;;;0.20;99.90;;;;;;5030876;28;20209;-73
2021/11/28 00:17:36;;;;;;;4.72;2.63;;;0.20;99.90;;;;;;5030355;28;20663;-73
2021/11/28 00:20:04;;;;;;;2.90;2.60;;;0.20;99.90;;;;;;5030462;28;20787;-73
2021/11/28 00:22:31;;;;;;;3.70;3.13;;;0.20;99.90;;;;;;5029930;28;20288;-73
2021/11/28 00:24:59;;;;;;;3.40;2.75;;;0.30;99.90;;;;;;5030487;28;20688;-73
2021/11/28 00:27:26;;;;;;;3.72;2.83;;;0.30;99.90;;;;;;5030064;28;20762;-73
2021/11/28 00:29:53;;;;;;;4.18;2.70;;;0.30;99.90;;;;;;5030538;28;20301;-73
2021/11/28 00:32:20;;;;;;;3.10;2.70;;;0.30;99.90;;;;;;5029584;28;20227;-72
2021/11/28 00:34:47;;;;;;;4.18;2.63;;;0.30;99.90;;;;;;5030317;28;20671;-73
2021/11/28 00:37:13;;;;;;;3.10;2.80;;;0.30;99.90;;;;;;5029953;28;20230;-72
2021/11/28 00:39:42;;;;;;;3.90;3.45;;;0.30;99.90;;;;;;5030054;28;20209;-73
2021/11/28 00:42:10;;;;;;;3.63;2.60;;;0.30;99.90;;;;;;5029840;28;20202;-73
2021/11/28 00:44:40;;;;;;;3.00;2.53;;;0.30;99.90;;;;;;5029901;28;20221;-73
2021/11/28 00:47:06;;;;;;;3.88;2.67;;;0.30;99.90;;;;;;5029917;28;20229;-73
2021/11/28 00:49:34;;;;;;;4.82;3.17;;;0.40;99.90;;;;;;5029676;28;20236;-73
2021/11/28 00:52:01;;;;;;;2.80;2.25;;;0.40;99.90;;;;;;5029827;28;20608;-74
2021/11/28 00:54:29;;;;;;;3.45;2.60;;;0.40;99.90;;;;;;5029988;28;20585;-73
2021/11/28 00:56:57;;;;;;;3.67;3.05;;;0.40;99.90;;;;;;5029850;28;20226;-73
2021/11/28 00:59:25;;;;;;;4.07;3.30;;;0.40;99.90;;;;;;5029805;28;20329;-73
2021/11/28 01:01:52;;;;;;;3.83;2.97;;;0.40;99.90;;;;;;5029186;28;20210;-73
2021/11/28 01:04:19;;;;;;;3.30;2.80;;;0.40;99.90;;;;;;5029585;28;20198;-73
2021/11/28 01:06:46;;;;;;;4.18;2.42;;;0.50;99.90;;;;;;5029446;28;20225;-72
2021/11/28 01:09:13;;;;;;;3.38;2.88;;;0.50;99.90;;;;;;5029568;28;20210;-72
2021/11/28 01:11:40;;;;;;;6.65;2.95;;;0.50;99.90;;;;;;5028926;28;20250;-72
2021/11/28 01:14:07;;;;;;;3.05;2.80;;;0.50;99.90;;;;;;5029058;28;20213;-73
2021/11/28 01:16:35;;;;;;;6.32;2.90;;;0.50;99.90;;;;;;5028158;28;20667;-73
2021/11/28 01:19:03;;;;;;;4.93;2.90;;;0.60;99.90;;;;;;5027256;28;20194;-73
2021/11/28 01:21:30;;;;;;;2.58;2.38;;;0.60;99.90;;;;;;5027645;28;20312;-73
2021/11/28 01:23:57;;;;;;;6.25;2.80;;;0.50;99.90;;;;;;5028462;28;20213;-73
2021/11/28 01:26:24;;;;;;;3.80;2.85;;;0.60;99.90;;;;;;5027803;28;20704;-73
2021/11/28 01:28:51;;;;;;;3.42;2.70;;;0.60;99.90;;;;;;5028360;28;20208;-73
2021/11/28 01:31:18;;;;;;;3.45;2.90;;;0.60;99.90;;;;;;5027709;28;20284;-73
2021/11/28 01:33:46;;;;;;;2.60;2.40;;;0.60;99.90;;;;;;5028240;28;20296;-73
2021/11/28 01:36:13;;;;;;;4.97;2.67;;;0.60;99.90;;;;;;5027821;28;20201;-73
2021/11/28 01:38:40;;;;;;;4.85;2.47;;;0.60;99.90;;;;;;5028788;28;20202;-73
2021/11/28 01:41:06;;;;;;;3.58;2.28;;;0.60;99.90;;;;;;5026429;28;20202;-73
2021/11/28 01:43:33;;;;;;;3.30;2.33;;;0.70;99.90;;;;;;5029072;28;20209;-73
2021/11/28 01:46:00;;;;;;;4.28;2.90;;;0.60;99.90;;;;;;5028663;28;20221;-73
2021/11/28 01:48:27;;;;;;;2.88;2.38;;;0.70;99.90;;;;;;5028497;28;20225;-73
2021/11/28 01:50:56;;;;;;;2.75;2.50;;;0.70;99.90;;;;;;5028373;28;20214;-73
2021/11/28 01:53:28;;;;;;;3.55;2.65;;;0.70;99.90;;;;;;5028396;28;20692;-73
2021/11/28 01:55:55;;;;;;;3.42;2.40;;;0.70;99.90;;;;;;5028930;28;20248;-73
2021/11/28 01:58:23;;;;;;;4.07;2.60;;;0.60;99.90;;;;;;5028126;28;20225;-73
2021/11/28 02:00:53;;;;;;;4.13;2.35;;;0.60;99.90;;;;;;5024028;28;20212;-73
2021/11/28 02:03:20;;;;;;;5.15;2.53;;;0.60;99.90;;;;;;5027993;28;20210;-73
2021/11/28 02:05:51;;;;;;;5.78;3.03;;;0.60;99.90;;;;;;5027830;28;20224;-73
2021/11/28 02:08:19;;;;;;;5.57;2.88;;;0.60;99.90;;;;;;5028029;28;20224;-73
2021/11/28 02:10:46;;;;;;;2.92;2.47;;;0.60;99.90;;;;;;5027886;28;20210;-73
2021/11/28 02:13:14;;;;;;;5.05;2.53;;;0.60;99.90;;;;;;5028314;28;20217;-74
2021/11/28 02:15:41;;;;;;;5.60;2.95;;;0.60;99.90;;;;;;5027159;28;20627;-73
2021/11/28 02:18:09;;;;;;;4.07;3.05;;;0.60;99.90;;;;;;5028274;28;20225;-73
2021/11/28 02:20:42;;;;;;;3.67;3.03;;;0.60;99.90;;;;;;5028001;28;20217;-73
2021/11/28 02:23:08;;;;;;;4.78;3.20;;;0.60;99.90;;;;;;5027915;28;20211;-73
2021/11/28 02:25:35;;;;;;;4.25;3.03;;;0.60;99.90;;;;;;5027703;28;20214;-73
2021/11/28 02:28:02;;;;;;;4.57;3.38;;;0.70;99.90;;;;;;5027977;28;20605;-73
2021/11/28 02:30:29;;;;;;;3.75;2.80;;;0.60;99.90;;;;;;5027505;28;20217;-73
2021/11/28 02:32:58;;;;;;;2.80;2.47;;;0.60;99.90;;;;;;5026902;28;20198;-73
2021/11/28 02:35:26;;;;;;;2.67;2.47;;;0.60;99.90;;;;;;5027646;28;20197;-73
2021/11/28 02:37:55;;;;;;;3.47;2.60;;;0.60;99.90;;;;;;5027693;28;20341;-74
2021/11/28 02:40:24;;;;;;;3.75;2.55;;;0.70;99.90;;;;;;5027884;28;20208;-73
2021/11/28 02:42:53;;;;;;;3.55;2.80;;;0.60;99.90;;;;;;5027533;28;20213;-73
2021/11/28 02:45:21;;;;;;;3.78;2.63;;;0.70;99.90;;;;;;5027915;28;20313;-73
2021/11/28 02:47:49;;;;;;;2.63;2.42;;;0.70;99.90;;;;;;5030623;28;20264;-71
2021/11/28 02:50:17;;;;;;;2.85;2.40;;;0.60;99.90;;;;;;5032151;28;20197;-71
2021/11/28 02:52:52;;;;;;;2.53;2.25;;;0.70;99.90;;;;;;5029689;28;20209;-70
2021/11/28 02:55:22;;;;;;;8.27;2.40;;;0.70;99.90;;;;;;5032513;28;20284;-70
2021/11/28 02:57:48;;;;;;;4.78;2.75;;;0.70;99.90;;;;;;5028554;28;20344;-73
2021/11/28 03:00:17;;;;;;;2.50;2.15;;;0.70;99.90;;;;;;5053267;22;20237;-92
2021/11/28 03:02:44;;;;;;;3.40;2.60;;;0.70;99.90;;;;;;5031511;28;20632;-93
2021/11/28 03:05:11;;;;;;;6.63;2.75;;;0.70;99.90;;;;;;5032132;28;20276;-92
2021/11/28 03:07:39;;;;;;;5.13;2.38;;;0.70;99.90;;;;;;5031989;28;20691;-91
2021/11/28 03:10:08;;;;;;;3.30;2.50;;;0.80;99.90;;;;;;5032359;28;20304;-90
2021/11/28 03:12:36;;;;;;;3.83;3.00;;;0.80;99.90;;;;;;5032186;28;20619;-90
2021/11/28 03:15:04;;;;;;;3.50;3.20;;;0.80;99.90;;;;;;5032004;28;20205;-91
2021/11/28 03:17:30;;;;;;;3.83;2.75;;;0.70;99.90;;;;;;5032029;28;20197;-90
2021/11/28 03:19:57;;;;;;;3.47;3.15;;;0.70;99.90;;;;;;5033081;28;20224;-91
2021/11/28 03:22:24;;;;;;;3.90;2.75;;;0.80;99.90;;;;;;5033702;28;20202;-90
2021/11/28 03:24:51;;;;;;;3.28;2.25;;;0.80;99.90;;;;;;5034171;28;20209;-90
2021/11/28 03:27:20;;;;;;;4.20;2.65;;;0.80;99.90;;;;;;5033237;28;20224;-90
2021/11/28 03:29:49;;;;;;;2.72;2.53;;;0.80;99.90;;;;;;5033417;28;20663;-90
2021/11/28 03:32:16;;;;;;;3.13;2.25;;;0.80;99.90;;;;;;5033031;28;20232;-90
2021/11/28 03:34:43;;;;;;;3.78;2.63;;;0.80;99.90;;;;;;5033392;28;20206;-91
2021/11/28 03:37:10;;;;;;;3.45;2.35;;;0.80;99.90;;;;;;5033293;28;20227;-91
2021/11/28 03:39:37;;;;;;;6.80;2.88;;;0.80;99.90;;;;;;5033763;28;20218;-91
2021/11/28 03:42:07;;;;;;;3.78;2.55;;;0.80;99.90;;;;;;5034396;28;20232;-90
2021/11/28 03:44:35;;;;;;;3.30;2.70;;;0.80;99.90;;;;;;5036942;28;20210;-90
2021/11/28 03:47:04;;;;;;;4.03;2.70;;;0.80;99.90;;;;;;5037524;28;20730;-92
2021/11/28 03:49:31;;;;;;;3.75;2.25;;;0.80;99.90;;;;;;5037990;28;20236;-93
2021/11/28 03:51:58;;;;;;;2.58;2.38;;;0.80;99.90;;;;;;5037981;28;20202;-92
2021/11/28 03:54:25;;;;;;;6.80;3.30;;;0.80;99.90;;;;;;5038125;28;20214;-93
2021/11/28 03:56:52;;;;;;;4.28;2.45;;;0.80;99.90;;;;;;5037703;28;20194;-91
2021/11/28 03:59:19;;;;;;;4.68;2.35;;;0.80;99.90;;;;;;5037436;28;20253;-90
2021/11/28 04:01:47;;;;;;;3.08;2.55;;;0.80;99.90;;;;;;5036679;28;20217;-91
2021/11/28 04:04:15;;;;;;;2.30;2.10;;;0.70;99.90;;;;;;5037562;28;20222;-90
2021/11/28 04:06:42;;;;;;;2.78;2.20;;;0.70;99.90;;;;;;5037059;28;20231;-90
2021/11/28 04:09:09;;;;;;;4.78;2.60;;;0.70;99.90;;;;;;5036958;28;20222;-90
2021/11/28 04:11:36;;;;;;;3.80;2.40;;;0.70;99.90;;;;;;5036094;28;20212;-90
2021/11/28 04:14:03;;;;;;;3.83;2.65;;;0.70;99.90;;;;;;5036212;28;20209;-90
2021/11/28 04:16:30;;;;;;;4.18;2.35;;;0.70;99.90;;;;;;5036136;28;20209;-90
2021/11/28 04:19:23;;;;;;;3.53;1.80;;;0.70;99.90;;;;;;5036173;28;20225;-91
2021/11/28 04:21:52;;;;;;;3.08;2.40;;;0.70;99.90;;;;;;5028204;28;20205;-90
2021/11/28 04:24:18;;;;;;;6.43;2.65;;;0.70;99.90;;;;;;5036116;28;20386;-90
2021/11/28 04:26:45;;;;;;;4.50;2.55;;;0.70;99.90;;;;;;5036021;28;20716;-90
2021/11/28 04:29:13;;;;;;;2.72;2.53;;;0.70;99.90;;;;;;5035994;28;20226;-90
2021/11/28 04:31:40;;;;;;;2.88;2.50;;;0.70;99.90;;;;;;5035696;28;20209;-90
2021/11/28 04:34:07;;;;;;;3.15;2.15;;;0.70;99.90;;;;;;5035830;28;20213;-91
2021/11/28 04:36:33;;;;;;;4.35;2.25;;;0.80;99.90;;;;;;5035658;28;20197;-92
2021/11/28 04:39:02;;;;;;;4.35;2.80;;;0.80;99.90;;;;;;5035973;28;20308;-91
2021/11/28 04:41:29;;;;;;;2.80;2.30;;;0.70;99.90;;;;;;5035745;28;20209;-90
2021/11/28 04:43:56;;;;;;;2.97;2.20;;;0.80;99.90;;;;;;5036213;28;20218;-89
2021/11/28 04:46:23;;;;;;;3.30;2.15;;;0.80;99.90;;;;;;5035658;28;20209;-90
2021/11/28 04:48:50;;;;;;;3.40;2.60;;;0.80;99.90;;;;;;5035781;28;20218;-91
2021/11/28 04:51:37;;;;;;;4.85;2.80;;;0.80;99.90;;;;;;5035881;28;20210;-91
2021/11/28 04:54:06;;;;;;;3.75;2.30;;;0.80;99.90;;;;;;5035514;28;20289;-90
2021/11/28 04:56:33;;;;;;;7.07;2.72;;;0.80;99.90;;;;;;5035499;28;20213;-90
2021/11/28 04:59:00;;;;;;;2.75;2.35;;;0.90;99.90;;;;;;5036015;28;20256;-91
2021/11/28 05:01:28;;;;;;;2.72;2.05;;;0.90;99.90;;;;;;5035456;28;20209;-91
2021/11/28 05:03:55;;;;;;;2.67;2.30;;;0.90;99.90;;;;;;5035385;28;20220;-90
2021/11/28 05:06:22;;;;;;;5.47;2.40;;;0.90;99.90;;;;;;5034943;28;20208;-91
2021/11/28 05:08:49;;;;;;;3.67;2.15;;;0.90;99.90;;;;;;5035362;28;20236;-91
2021/11/28 05:11:17;;;;;;;4.20;2.40;;;0.90;99.90;;;;;;5035085;28;20217;-90
2021/11/28 05:13:45;;;;;;;4.82;2.00;;;0.90;99.90;;;;;;5035337;28;20209;-91
2021/11/28 05:16:12;;;;;;;5.28;2.13;;;0.90;99.90;;;;;;5035448;28;20208;-91
2021/11/28 05:18:39;;;;;;;2.45;2.25;;;1.00;99.90;;;;;;5036363;28;20205;-92
2021/11/28 05:21:06;;;;;;;3.50;2.38;;;1.00;99.90;;;;;;5035466;28;20205;-91
2021/11/28 05:23:33;;;;;;;2.03;1.85;;;1.00;99.90;;;;;;5034928;28;20213;-91
2021/11/28 05:25:59;;;;;;;4.55;2.42;;;1.00;99.90;;;;;;5035482;28;20212;-91
2021/11/28 05:28:28;;;;;;;6.78;2.40;;;1.00;99.90;;;;;;5034572;28;20232;-91
2021/11/28 05:31:17;;;;;;;3.78;2.65;;;1.00;99.90;;;;;;5035099;28;20202;-90
2021/11/28 05:33:45;;;;;;;3.92;2.40;;;1.00;99.90;;;;;;5035170;28;20307;-91
2021/11/28 05:36:13;;;;;;;3.17;2.30;;;1.00;99.90;;;;;;5035275;28;20206;-91
2021/11/28 05:38:39;;;;;;;3.38;2.78;;;1.00;99.90;;;;;;5034776;28;20218;-90
2021/11/28 05:41:07;;;;;;;3.10;2.35;;;1.00;99.90;;;;;;5034898;28;20591;-90
2021/11/28 05:43:38;;;;;;;2.63;2.20;;;1.00;99.90;;;;;;5034689;28;20644;-90
2021/11/28 05:46:06;;;;;;;3.35;3.00;;;1.10;99.90;;;;;;5034730;28;20247;-91
2021/11/28 05:48:33;;;;;;;3.42;2.35;;;1.00;99.90;;;;;;5034465;28;20225;-90
2021/11/28 05:51:00;;;;;;;4.95;2.40;;;1.10;99.90;;;;;;5034177;28;20198;-91
2021/11/28 05:53:28;;;;;;;2.35;2.15;;;1.10;99.90;;;;;;5034641;28;20225;-91
2021/11/28 05:55:56;;;;;;;3.70;2.15;;;1.10;99.90;;;;;;5034843;28;20627;-90
2021/11/28 05:58:23;;;;;;;1.85;1.70;;;1.00;99.90;;;;;;5034168;28;20226;-91
2021/11/28 06:00:52;;;;;;;4.13;2.13;;;1.10;99.90;;;;;;5034874;28;20197;-91
2021/11/28 06:03:18;;;;;;;4.38;2.33;;;1.00;99.90;;;;;;5034428;28;20202;-91
2021/11/28 06:05:47;;;;;;;3.40;2.40;;;1.00;99.90;;;;;;5033520;28;20206;-91
2021/11/28 06:08:14;;;;;;;2.22;2.03;;;1.00;99.90;;;;;;5033773;28;20237;-91
2021/11/28 06:10:41;;;;;;;2.55;1.90;;;1.00;99.90;;;;;;5034177;28;20217;-91
2021/11/28 06:13:08;;;;;;;2.47;2.08;;;1.00;99.90;;;;;;5033912;28;20284;-91
2021/11/28 06:15:35;;;;;;;2.47;1.90;;;1.00;99.90;;;;;;5033789;28;20210;-91
2021/11/28 06:18:05;;;;;;;3.30;1.90;;;0.90;99.90;;;;;;5038507;28;20212;-92
2021/11/28 06:20:32;;;;;;;3.20;2.00;;;1.00;99.90;;;;;;5035953;28;20202;-91
2021/11/28 06:22:59;;;;;;;3.35;2.03;;;0.90;99.90;;;;;;5033805;28;20251;-92
2021/11/28 06:25:26;;;;;;;2.35;2.08;;;0.90;99.90;;;;;;5034400;28;20351;-91
2021/11/28 06:27:53;;;;;;;2.42;1.70;;;1.00;99.90;;;;;;5032901;28;20230;-92
2021/11/28 06:30:20;;;;;;;2.00;1.80;;;0.90;99.90;;;;;;5032888;28;20214;-92
2021/11/28 06:32:47;;;;;;;2.72;2.15;;;1.00;99.90;;;;;;5032860;28;20190;-92
2021/11/28 06:35:16;;;;;;;4.00;2.40;;;0.90;99.90;;;;;;5032446;28;20191;-91
2021/11/28 06:37:46;;;;;;;4.18;2.33;;;1.00;99.90;;;;;;5030349;28;20190;-92
2021/11/28 06:40:13;;;;;;;2.40;1.77;;;0.90;99.90;;;;;;5032635;28;20277;-92
2021/11/28 06:45:42;;;;;;;2.15;1.50;;;0.90;99.90;;;;;;5030908;28;20283;-92
2021/11/28 06:48:09;;;;;;;2.70;1.70;;;1.00;99.90;;;;;;5032128;28;20243;-92
2021/11/28 06:50:37;;;;;;;3.30;1.95;;;1.00;99.90;;;;;;5032535;28;20197;-91
2021/11/28 06:53:04;;;;;;;4.68;2.30;;;1.00;99.90;;;;;;5032451;28;20197;-92
2021/11/28 06:55:31;;;;;;;3.00;2.15;;;1.00;99.90;;;;;;5030313;28;20202;-93
2021/11/28 06:57:58;;;;;;;4.15;2.85;;;1.00;99.90;;;;;;5033111;28;20201;-92
2021/11/28 07:00:26;;;;;;;2.80;2.50;;;1.00;99.90;;;;;;5048846;28;20318;-93
2021/11/28 07:02:53;;;;;;;3.42;1.92;;;1.00;99.90;;;;;;5035697;28;20202;-93
2021/11/28 07:05:20;;;;;;;2.78;1.90;;;1.00;99.90;;;;;;5039807;28;20233;-93
2021/11/28 07:07:48;;;;;;;3.25;2.53;;;1.00;99.90;;;;;;5056755;28;20289;-93
2021/11/28 07:10:15;;;;;;;2.30;2.10;;;1.00;99.90;;;;;;5056641;28;20261;-94
2021/11/28 07:12:43;;;;;;;3.45;2.50;;;1.00;99.90;;;;;;5056224;28;20249;-93
2021/11/28 07:15:12;;;;;;;3.70;2.05;;;1.00;99.90;;;;;;5056805;28;20190;-92
2021/11/28 07:17:40;;;;;;;2.95;2.20;;;1.00;99.90;;;;;;5059134;28;20247;-93
2021/11/28 07:20:08;;;;;;;2.75;2.17;;;1.00;99.90;;;;;;5061133;28;20252;-92
2021/11/28 07:22:36;;;;;;;2.28;2.08;;;1.00;99.90;;;;;;5060692;28;20188;-93
2021/11/28 07:25:06;;;;;;;2.75;2.17;;;1.00;99.90;;;;;;5059218;28;20237;-93
2021/11/28 07:27:32;;;;;;;2.10;1.70;;;1.10;99.90;;;;;;5039832;28;20284;-93
2021/11/28 07:30:03;;;;;;;5.10;2.78;;;1.10;99.90;;;;;;5037656;28;20654;-92
2021/11/28 07:35:11;;;;;;;2.83;2.53;;;1.10;99.90;;;;;;5038430;28;20638;-92
2021/11/28 07:37:38;;;;;;;3.28;2.17;;;1.10;99.90;;;;;;5040183;28;20207;-93
2021/11/28 07:40:10;;;;;;;3.65;2.67;;;1.10;99.90;;;;;;5038898;28;20256;-92
2021/11/28 07:42:39;;;;;;;2.50;2.30;;;1.10;99.90;;;;;;5039105;28;20297;-92
2021/11/28 07:45:08;;;;;;;2.85;2.10;;;1.10;99.90;;;;;;5038761;28;20218;-92
2021/11/28 07:47:35;;;;;;;3.65;2.80;;;1.10;99.90;;;;;;5045725;28;20286;-93
2021/11/28 07:50:02;;;;;;;5.10;2.50;;;1.10;99.90;;;;;;5056614;28;20221;-93
2021/11/28 07:52:29;;;;;;;2.58;2.35;;;1.10;99.90;;;;;;5054154;28;20209;-93
2021/11/28 07:55:02;;;;;;;4.47;2.72;;;1.20;99.90;;;;;;5052641;28;20202;-93
2021/11/28 07:57:31;;;;;;;4.50;2.80;;;1.20;99.90;;;;;;5052215;28;20205;-93
2021/11/28 07:59:58;;;;;;;3.63;2.80;;;1.30;99.90;;;;;;5051929;28;20222;-93
2021/11/28 08:02:25;;;;;;;3.90;2.63;;;1.30;99.90;;;;;;5049073;28;20208;-94
2021/11/28 08:04:52;;;;;;;2.50;2.30;;;1.30;99.90;;;;;;5045582;28;20205;-93
2021/11/28 08:07:19;;;;;;;2.70;2.35;;;1.30;99.90;;;;;;5043622;28;20298;-92
2021/11/28 08:09:46;;;;;;;41.17;22.83;;;1.40;99.90;;;;;;5059334;28;20228;-93
2021/11/28 08:12:13;;;;;;;8.02;5.07;;;1.50;99.90;;;;;;5061002;28;20254;-94
2021/11/28 08:14:43;;;;;;;3.17;2.65;;;1.70;99.90;;;;;;5059106;28;20186;-92
2021/11/28 08:17:10;;;;;;;3.22;2.70;;;1.80;99.90;;;;;;5039670;28;20179;-92
2021/11/28 08:19:37;;;;;;;3.40;2.40;;;1.80;99.90;;;;;;5040636;28;20210;-92
2021/11/28 08:22:04;;;;;;;3.35;2.53;;;1.70;99.90;;;;;;5040280;28;20197;-91
2021/11/28 08:24:31;;;;;;;2.75;2.20;;;1.70;99.90;;;;;;5040372;28;20249;-92
2021/11/28 08:26:58;;;;;;;4.20;2.50;;;1.70;99.90;;;;;;5040202;28;20234;-93
2021/11/28 08:29:25;;;;;;;2.65;2.10;;;1.70;99.90;;;;;;5039840;28;20273;-92
2021/11/28 08:31:58;;;;;;;2.30;2.10;;;1.70;99.90;;;;;;5040010;28;20213;-91
2021/11/28 08:34:25;;;;;;;3.15;2.03;;;1.70;99.90;;;;;;5039889;28;20230;-93
2021/11/28 08:36:52;;;;;;;3.13;2.80;;;1.70;99.90;;;;;;5039824;28;20207;-92
2021/11/28 08:39:19;;;;;;;4.75;2.40;;;1.70;99.90;;;;;;5039823;28;20298;-90
2021/11/28 08:41:46;;;;;;;5.00;2.20;;;1.60;99.90;;;;;;5039783;28;20174;-92
2021/11/28 08:44:13;;;;;;;2.78;2.10;;;1.70;99.90;;;;;;5040133;28;20209;-91
2021/11/28 08:46:40;;;;;;;2.67;2.25;;;1.60;99.90;;;;;;5039859;28;20183;-91
2021/11/28 08:49:08;;;;;;;4.50;2.45;;;1.60;99.90;;;;;;5044460;28;20281;-91
2021/11/28 08:51:35;;;;;;;3.45;2.15;;;1.60;99.90;;;;;;5058711;28;20198;-93
2021/11/28 08:54:02;;;;;;;3.20;2.58;;;1.50;99.90;;;;;;5059106;28;20405;-91
2021/11/28 08:56:29;;;;;;;3.38;2.90;;;1.60;99.90;;;;;;5058766;28;20197;-92
2021/11/28 08:58:57;;;;;;;3.72;2.97;;;1.50;99.90;;;;;;5135527;22;20221;-74
2021/11/28 09:01:24;;;;;;;4.15;2.17;;;1.40;99.90;;;;;;5036947;28;20614;-74
2021/11/28 09:03:52;;;;;;;4.00;2.65;;;1.50;99.90;;;;;;5039712;28;20205;-74
2021/11/28 09:06:20;;;;;;;2.75;2.38;;;1.40;99.90;;;;;;5038643;28;20208;-74
2021/11/28 09:08:47;;;;;;;2.30;2.00;;;1.40;99.90;;;;;;5038377;28;20652;-74
2021/11/28 09:11:15;;;;;;;4.35;2.70;;;1.40;99.90;;;;;;5036355;28;20205;-74
2021/11/28 09:13:42;;;;;;;5.47;3.00;;;1.50;99.90;;;;;;5038526;28;20214;-74
2021/11/28 09:16:10;;;;;;;2.17;1.90;;;1.60;99.90;;;;;;5037775;28;20574;-74
2021/11/28 09:18:41;;;;;;;2.72;2.42;;;1.60;99.90;;;;;;5035009;28;20637;-75
2021/11/28 09:21:08;;;;;;;3.85;2.05;;;1.70;99.90;;;;;;5036764;28;20190;-75
2021/11/28 09:26:20;;;;;;;3.08;2.08;;;1.80;99.90;;;;;;5037555;28;20668;-75
2021/11/28 09:28:47;;;;;;;1.88;1.77;;;1.90;99.90;;;;;;5038038;28;20222;-75
2021/11/28 09:31:14;;;;;;;2.53;2.10;;;2.00;99.90;;;;;;5037003;28;20625;-75
2021/11/28 09:33:41;;;;;;;4.82;2.20;;;2.00;99.90;;;;;;5037002;28;20368;-74
2021/11/28 09:36:09;;;;;;;2.20;2.00;;;2.00;99.90;;;;;;5037016;28;20297;-75
2021/11/28 09:38:37;;;;;;;2.30;1.90;;;2.10;99.90;;;;;;5037180;28;20208;-75
2021/11/28 09:41:07;;;;;;;2.70;2.03;;;2.10;99.90;;;;;;5036445;28;20267;-74
2021/11/28 09:43:36;;;;;;;3.33;2.25;;;2.20;99.90;;;;;;5035164;28;20198;-74
2021/11/28 09:46:04;;;;;;;4.55;2.13;;;2.20;99.90;;;;;;5035757;28;20208;-74
2021/11/28 09:48:34;;;;;;;2.85;2.65;;;2.20;99.90;;;;;;5034904;28;20642;-74
2021/11/28 09:51:03;;;;;;;2.67;2.38;;;2.20;99.90;;;;;;5034307;28;20775;-74
2021/11/28 09:53:31;;;;;;;2.35;2.00;;;2.30;99.90;;;;;;5035693;28;20202;-74
2021/11/28 09:56:00;;;;;;;6.13;2.63;;;2.30;99.90;;;;;;5036346;28;20215;-74
2021/11/28 09:58:27;;;;;;;2.10;1.90;;;2.30;99.90;;;;;;5036136;28;20217;-74
2021/11/28 10:00:54;;;;;;;2.75;2.00;;;2.30;99.90;;;;;;5036680;28;20205;-74
2021/11/28 10:03:22;;;;;;;5.60;2.15;;;2.40;99.90;;;;;;5036278;28;20202;-74
2021/11/28 10:05:51;;;;;;;2.47;2.05;;;2.40;99.90;;;;;;5035631;28;20206;-74
2021/11/28 10:08:20;;;;;;;3.97;2.20;;;2.40;99.90;;;;;;5035051;28;20732;-74
2021/11/28 10:11:15;;;;;;;3.00;2.25;;;2.50;99.90;;;;;;5035021;28;20299;-74
2021/11/28 10:13:42;;;;;;;5.13;2.50;;;2.60;99.90;;;;;;5035312;28;20209;-75
2021/11/28 10:16:09;;;;;;;3.17;2.33;;;2.70;99.90;;;;;;5026180;28;20212;-74
2021/11/28 10:18:40;;;;;;;3.80;2.20;;;2.70;99.90;;;;;;5046929;28;20204;-74
2021/11/28 10:21:07;;;;;;;3.33;2.30;;;2.80;99.90;;;;;;5047310;28;20224;-74
2021/11/28 10:23:35;;;;;;;3.38;2.58;;;2.80;99.90;;;;;;5046739;28;20275;-74
2021/11/28 10:26:15;;;;;;;3.38;2.30;;;2.90;99.90;;;;;;5049227;28;20205;-74
2021/11/28 10:29:05;;;;;;;2.60;2.10;;;2.90;99.90;;;;;;5049152;28;20225;-74
2021/11/28 10:31:41;;;;;;;3.45;2.58;;;3.00;99.90;;;;;;5048191;28;20205;-73
2021/11/28 10:34:18;;;;;;;2.60;2.30;;;3.00;99.90;;;;;;5048364;28;20268;-73
2021/11/28 10:36:46;;;;;;;3.38;2.63;;;3.10;99.90;;;;;;5047380;28;20221;-73
2021/11/28 10:39:18;;;;;;;4.25;3.17;;;3.10;99.90;;;;;;5038932;28;20194;-74
2021/11/28 10:41:53;;;;;;;2.38;2.17;;;3.10;99.90;;;;;;5041152;28;20222;-74
2021/11/28 10:44:23;;;;;;;4.75;2.72;;;3.20;99.90;;;;;;5041407;28;20298;-75
2021/11/28 10:46:50;;;;;;;4.00;2.65;;;3.20;99.90;;;;;;5041925;28;20228;-74
2021/11/28 10:49:19;;;;;;;2.80;2.60;;;3.20;99.90;;;;;;5042939;28;20226;-74
2021/11/28 10:51:49;;;;;;;3.10;2.47;;;3.10;99.90;;;;;;5043749;28;20657;-74
2021/11/28 10:54:28;;;;;;;5.45;2.88;;;3.10;99.90;;;;;;5045314;28;20236;-74
2021/11/28 10:57:15;;;;;;;3.35;2.60;;;3.10;99.90;;;;;;5042198;28;20221;-74
2021/11/28 10:59:44;;;;;;;3.28;2.97;;;3.10;99.90;;;;;;5043038;28;20206;-74
2021/11/28 11:02:20;;;;;;;4.45;3.53;;;3.00;99.90;;;;;;5042334;28;20202;-75
2021/11/28 11:04:47;;;;;;;2.85;2.30;;;3.10;99.90;;;;;;5042687;28;20201;-75
2021/11/28 11:07:17;;;;;;;4.22;2.65;;;3.10;99.90;;;;;;5040596;28;20226;-75
2021/11/28 11:09:46;;;;;;;3.50;2.80;;;3.00;99.90;;;;;;5040683;28;20316;-72
2021/11/28 11:12:24;;;;;;;6.50;2.10;;;3.00;99.90;;;;;;5040063;28;20225;-72
2021/11/28 11:14:54;;;;;;;2.70;2.33;;;3.00;99.90;;;;;;5042342;28;20232;-73
2021/11/28 11:17:22;;;;;;;3.03;2.72;;;2.90;99.90;;;;;;5035483;28;20218;-74
2021/11/28 11:19:49;;;;;;;2.92;2.13;;;3.00;99.90;;;;;;5045578;28;20201;-73
2021/11/28 11:22:19;;;;;;;2.75;2.28;;;3.00;99.90;;;;;;5034904;28;20201;-74
2021/11/28 11:24:52;;;;;;;2.97;2.40;;;3.10;99.90;;;;;;5043208;28;20669;-74
2021/11/28 11:27:25;;;;;;;8.45;3.97;;;3.10;99.90;;;;;;5038572;28;20759;-74
2021/11/28 11:29:55;;;;;;;8.07;4.28;;;3.10;99.90;;;;;;5034562;28;20312;-74
2021/11/28 11:32:23;;;;;;;12.57;4.50;;;3.10;99.90;;;;;;5035376;28;20288;-74
2021/11/28 11:34:56;;;;;;;6.57;4.68;;;3.00;99.90;;;;;;5035160;28;20221;-74
2021/11/28 11:37:29;;;;;;;8.45;2.85;;;3.00;99.90;;;;;;5033596;28;20305;-75
2021/11/28 11:39:58;;;;;;;3.88;2.42;;;3.10;99.90;;;;;;5031151;28;20206;-75
2021/11/28 11:42:28;;;;;;;3.65;3.00;;;3.00;99.90;;;;;;5032407;28;20252;-75
2021/11/28 11:44:56;;;;;;;3.40;2.85;;;2.90;99.90;;;;;;5033416;28;20212;-74
2021/11/28 11:47:23;;;;;;;4.65;3.38;;;2.80;99.90;;;;;;5033442;28;20233;-73
2021/11/28 11:49:51;;;;;;;3.70;3.00;;;2.70;99.90;;;;;;5033216;28;20218;-74
2021/11/28 11:52:19;;;;;;;4.63;3.40;;;2.60;99.90;;;;;;5030599;28;20194;-74
2021/11/28 11:54:48;;;;;;;5.63;3.80;;;2.60;99.90;;;;;;5033699;28;20198;-75
2021/11/28 11:57:20;;;;;;;5.22;3.78;;;2.60;99.90;;;;;;5034121;28;20602;-75
2021/11/28 12:00:08;;;;;;;4.00;3.63;;;2.60;99.90;;;;;;5033735;28;20206;-74
2021/11/28 12:02:37;;;;;;;3.47;2.90;;;2.60;99.90;;;;;;5018341;28;20208;-74
2021/11/28 12:05:29;;;;;;;4.40;3.50;;;2.60;99.90;;;;;;5036208;28;20198;-74
2021/11/28 12:07:58;;;;;;;4.47;2.92;;;2.70;99.90;;;;;;5036081;28;20218;-74
2021/11/28 12:10:34;;;;;;;4.10;3.10;;;2.60;99.90;;;;;;5018871;28;20226;-74
2021/11/28 12:13:04;;;;;;;4.40;3.17;;;2.70;99.90;;;;;;5034135;28;20271;-73
2021/11/28 12:15:33;;;;;;;3.78;3.15;;;2.70;99.90;;;;;;5035199;28;20209;-74
2021/11/28 12:18:01;;;;;;;4.10;3.22;;;2.80;99.90;;;;;;5034887;28;20225;-74
2021/11/28 12:20:58;;;;;;;4.43;2.97;;;2.80;99.90;;;;;;5029459;28;20293;-74
2021/11/28 12:24:00;;;;;;;4.57;3.38;;;2.80;99.90;;;;;;5028212;28;20212;-73
2021/11/28 12:26:40;;;;;;;3.20;2.90;;;2.80;99.90;;;;;;5033831;28;20279;-74
2021/11/28 12:29:35;;;;;;;3.60;3.05;;;2.80;99.90;;;;;;5033004;28;20225;-74
2021/11/28 12:32:23;;;;;;;3.97;3.20;;;2.90;99.90;;;;;;5034995;28;20206;-74
2021/11/28 12:34:54;;;;;;;3.42;3.05;;;2.90;99.90;;;;;;5034637;28;20220;-74
2021/11/28 12:37:34;;;;;;;3.70;2.47;;;3.00;99.90;;;;;;5025099;28;20295;-74
2021/11/28 12:40:20;;;;;;;6.70;3.90;;;3.10;99.90;;;;;;5034035;28;20587;-75
2021/11/28 12:42:47;;;;;;;6.55;3.70;;;3.10;99.90;;;;;;5018354;28;20206;-74
2021/11/28 12:45:14;;;;;;;3.90;3.30;;;3.10;99.90;;;;;;5034079;28;20206;-75
2021/11/28 12:47:42;;;;;;;3.25;2.95;;;3.10;99.90;;;;;;5033183;28;20229;-75
2021/11/28 12:50:18;;;;;;;4.18;3.00;;;3.10;99.90;;;;;;5033896;28;20685;-75
2021/11/28 12:52:47;;;;;;;5.45;4.95;;;3.00;99.90;;;;;;5028832;28;20205;-73
2021/11/28 12:55:24;;;;;;;3.30;2.72;;;3.00;99.90;;;;;;5029955;28;20198;-74
2021/11/28 12:58:08;;;;;;;3.60;2.90;;;3.00;99.90;;;;;;5031189;28;20225;-74
2021/11/28 13:00:37;;;;;;;3.25;2.95;;;3.00;99.90;;;;;;5031310;28;20376;-75
2021/11/28 13:03:23;;;;;;;3.28;2.97;;;3.00;99.90;;;;;;5033019;28;20226;-75
2021/11/28 13:05:52;;;;;;;4.28;3.08;;;3.00;99.90;;;;;;5034343;28;20665;-75
2021/11/28 13:08:30;;;;;;;4.20;3.50;;;3.00;99.90;;;;;;5031208;28;20225;-74
2021/11/28 13:10:57;;;;;;;2.90;2.60;;;3.10;99.90;;;;;;5017654;28;20222;-75
2021/11/28 13:13:28;;;;;;;5.07;3.40;;;3.10;99.90;;;;;;5032657;28;20213;-75
2021/11/28 13:15:57;;;;;;;4.10;3.33;;;3.20;99.90;;;;;;5032804;28;20206;-74
2021/11/28 13:18:29;;;;;;;3.05;2.75;;;3.20;99.90;;;;;;5031661;28;20229;-73